Time;durP1;ratioP1;P1;durP2;ratioP2;P2;SDS_P1;SDS_P2;PMS_P1;PMS_P2;Temp;Humidity;BMP_temperature;BMP_pressure;BME280_temperature;BME280_humidity;BME280_pressure;Samples;Min_cycle;Max_cycle;Signal;HPM_P1;HPM_P2
2023/07/18 00:02:03;;;;;;;7.63;3.22;;;;;;;;;;5110536;27;20046;-68
2023/07/18 00:04:30;;;;;;;11.07;3.85;;;;;;;;;;5113899;28;20051;-69
2023/07/18 00:06:56;;;;;;;9.40;3.90;;;;;;;;;;5113537;27;20035;-69
2023/07/18 00:09:22;;;;;;;20.67;3.95;;;;;;;;;;5107286;28;20513;-69
2023/07/18 00:11:49;;;;;;;9.82;4.05;;;;;;;;;;5112597;28;20383;-69
2023/07/18 00:14:15;;;;;;;15.15;4.15;;;;;;;;;;5111565;28;20047;-69
2023/07/18 00:16:41;;;;;;;11.63;3.72;;;;;;;;;;5112060;28;20039;-69
2023/07/18 00:19:12;;;;;;;10.65;3.13;;;;;;;;;;5112828;28;20088;-68
2023/07/18 00:21:39;;;;;;;9.68;3.72;;;;;;;;;;5112745;27;20118;-69
2023/07/18 00:24:05;;;;;;;11.73;3.15;;;;;;;;;;5114920;27;20051;-68
2023/07/18 00:26:32;;;;;;;8.85;3.33;;;;;;;;;;5111518;27;20383;-68
2023/07/18 00:28:58;;;;;;;8.57;3.42;;;;;;;;;;5113387;28;20586;-68
2023/07/18 00:31:25;;;;;;;7.93;3.20;;;;;;;;;;5111513;28;20364;-68
2023/07/18 00:33:51;;;;;;;14.05;3.50;;;;;;;;;;5105769;27;20058;-69
2023/07/18 00:36:17;;;;;;;11.00;3.50;;;;;;;;;;5111848;27;20051;-68
2023/07/18 00:38:43;;;;;;;12.75;3.80;;;;;;;;;;5111951;28;20233;-69
2023/07/18 00:41:11;;;;;;;9.80;3.88;;;;;;;;;;5111262;27;20471;-68
2023/07/18 00:43:37;;;;;;;12.60;3.25;;;;;;;;;;5105647;27;20043;-69
2023/07/18 00:46:04;;;;;;;15.43;4.28;;;;;;;;;;5110244;27;20457;-68
2023/07/18 00:48:34;;;;;;;9.48;4.20;;;;;;;;;;5103527;27;20067;-69
2023/07/18 00:51:00;;;;;;;6.65;3.35;;;;;;;;;;5140987;27;20138;-68
2023/07/18 00:53:26;;;;;;;8.98;3.25;;;;;;;;;;5103711;28;20052;-69
2023/07/18 00:55:53;;;;;;;8.77;3.30;;;;;;;;;;5093539;28;20051;-68
2023/07/18 00:58:20;;;;;;;9.52;3.58;;;;;;;;;;5103769;28;20103;-69
2023/07/18 01:00:46;;;;;;;12.35;3.38;;;;;;;;;;5104309;28;20039;-68
2023/07/18 01:03:12;;;;;;;12.93;3.30;;;;;;;;;;5104028;28;20035;-68
2023/07/18 01:05:39;;;;;;;11.98;4.18;;;;;;;;;;5102839;28;20504;-69
2023/07/18 01:08:05;;;;;;;10.70;3.50;;;;;;;;;;5096593;28;20036;-68
2023/07/18 01:10:31;;;;;;;10.90;3.08;;;;;;;;;;5103076;28;20487;-68
2023/07/18 01:12:59;;;;;;;10.68;4.13;;;;;;;;;;5104695;27;20039;-68
2023/07/18 01:15:26;;;;;;;7.22;2.65;;;;;;;;;;5102682;28;20184;-68
2023/07/18 01:17:52;;;;;;;9.30;3.15;;;;;;;;;;5103303;28;20378;-68
2023/07/18 01:20:21;;;;;;;10.15;3.03;;;;;;;;;;5113783;27;20139;-69
2023/07/18 01:22:49;;;;;;;13.30;3.50;;;;;;;;;;5103357;27;20039;-69
2023/07/18 01:25:16;;;;;;;11.00;4.22;;;;;;;;;;5102292;27;20040;-69
2023/07/18 01:27:43;;;;;;;7.88;2.95;;;;;;;;;;5103842;28;20514;-68
2023/07/18 01:30:10;;;;;;;9.43;3.50;;;;;;;;;;5102710;27;20052;-69
2023/07/18 01:32:36;;;;;;;11.15;3.90;;;;;;;;;;5101661;28;20119;-68
2023/07/18 01:35:08;;;;;;;13.07;4.30;;;;;;;;;;5102665;27;20075;-69
2023/07/18 01:37:38;;;;;;;9.68;3.05;;;;;;;;;;5104477;28;20039;-68
2023/07/18 01:40:12;;;;;;;7.82;2.95;;;;;;;;;;5102656;28;20145;-68
2023/07/18 01:42:39;;;;;;;7.22;2.88;;;;;;;;;;5102536;27;20476;-69
2023/07/18 01:45:06;;;;;;;5.13;2.22;;;;;;;;;;5102231;28;20394;-68
2023/07/18 01:47:32;;;;;;;6.00;2.08;;;;;;;;;;5101014;27;20054;-69
2023/07/18 01:49:59;;;;;;;7.97;2.67;;;;;;;;;;5104725;28;20135;-68
2023/07/18 01:52:28;;;;;;;8.68;2.72;;;;;;;;;;5103435;28;20053;-68
2023/07/18 01:54:58;;;;;;;9.00;3.15;;;;;;;;;;5103991;28;20567;-68
2023/07/18 01:57:36;;;;;;;8.15;3.47;;;;;;;;;;5104650;28;20356;-68
2023/07/18 02:00:04;;;;;;;10.10;2.80;;;;;;;;;;5109183;27;20441;-68
2023/07/18 02:02:31;;;;;;;11.77;3.88;;;;;;;;;;5105461;27;20074;-68
2023/07/18 02:04:58;;;;;;;9.77;3.22;;;;;;;;;;5097566;28;20051;-68
2023/07/18 02:07:25;;;;;;;10.27;3.20;;;;;;;;;;5109465;27;20048;-68
2023/07/18 02:09:52;;;;;;;8.00;3.58;;;;;;;;;;5106901;27;20074;-69
2023/07/18 02:12:19;;;;;;;6.93;3.22;;;;;;;;;;5104709;28;20051;-68
2023/07/18 02:14:45;;;;;;;10.35;2.50;;;;;;;;;;5107787;28;20094;-68
2023/07/18 02:17:11;;;;;;;10.27;2.55;;;;;;;;;;5111800;27;20101;-68
2023/07/18 02:19:38;;;;;;;5.93;2.45;;;;;;;;;;5112031;28;20043;-68
2023/07/18 02:22:04;;;;;;;6.63;2.83;;;;;;;;;;5112616;27;20036;-68
2023/07/18 02:24:30;;;;;;;9.65;2.97;;;;;;;;;;5111208;28;20108;-68
2023/07/18 02:26:58;;;;;;;7.90;2.60;;;;;;;;;;5110012;28;20035;-68
2023/07/18 02:29:24;;;;;;;10.05;3.60;;;;;;;;;;5101960;28;20043;-69
2023/07/18 02:31:50;;;;;;;12.13;4.05;;;;;;;;;;5101492;28;20394;-68
2023/07/18 02:34:17;;;;;;;21.98;4.15;;;;;;;;;;5104984;28;20541;-68
2023/07/18 02:36:43;;;;;;;53.45;5.20;;;;;;;;;;5101537;27;20100;-68
2023/07/18 02:39:10;;;;;;;28.75;4.40;;;;;;;;;;5097251;28;20498;-68
2023/07/18 02:41:37;;;;;;;13.38;3.70;;;;;;;;;;5101528;28;20042;-68
2023/07/18 02:44:04;;;;;;;8.18;3.60;;;;;;;;;;5099504;28;20126;-68
2023/07/18 02:46:31;;;;;;;21.13;3.03;;;;;;;;;;5103848;28;20048;-69
2023/07/18 02:48:57;;;;;;;32.30;3.55;;;;;;;;;;5103193;28;20415;-69
2023/07/18 02:51:23;;;;;;;6.55;2.13;;;;;;;;;;5101702;28;20047;-69
2023/07/18 02:53:51;;;;;;;6.78;2.50;;;;;;;;;;5100285;28;20125;-68
2023/07/18 02:56:17;;;;;;;93.72;5.03;;;;;;;;;;5101364;28;20130;-68
2023/07/18 02:58:43;;;;;;;98.10;5.93;;;;;;;;;;5103118;28;20039;-68
2023/07/18 03:01:09;;;;;;;31.48;3.22;;;;;;;;;;5103566;28;20069;-68
2023/07/18 03:03:38;;;;;;;49.50;3.42;;;;;;;;;;5102234;28;20488;-68
2023/07/18 03:06:04;;;;;;;18.75;2.50;;;;;;;;;;5109545;28;20067;-68
2023/07/18 03:08:36;;;;;;;12.55;2.83;;;;;;;;;;5108348;28;20361;-68
2023/07/18 03:11:02;;;;;;;24.95;2.63;;;;;;;;;;5106181;27;20408;-68
2023/07/18 03:13:29;;;;;;;61.63;3.45;;;;;;;;;;5101549;28;20040;-69
2023/07/18 03:15:55;;;;;;;11.27;3.50;;;;;;;;;;5100912;28;20127;-68
2023/07/18 03:18:22;;;;;;;31.23;3.50;;;;;;;;;;5101021;28;20035;-68
2023/07/18 03:20:48;;;;;;;38.78;3.53;;;;;;;;;;5101774;28;20047;-68
2023/07/18 03:23:14;;;;;;;41.10;4.28;;;;;;;;;;5110844;28;20093;-68
2023/07/18 03:25:41;;;;;;;55.25;2.88;;;;;;;;;;5108077;28;20479;-69
2023/07/18 03:28:08;;;;;;;37.95;3.00;;;;;;;;;;5111453;28;20155;-68
2023/07/18 03:30:35;;;;;;;35.80;3.13;;;;;;;;;;5102709;28;20039;-68
2023/07/18 03:33:01;;;;;;;38.67;3.97;;;;;;;;;;5104202;28;20043;-68
2023/07/18 03:35:28;;;;;;;46.03;3.92;;;;;;;;;;5102033;28;20079;-68
2023/07/18 03:37:54;;;;;;;55.03;3.92;;;;;;;;;;5108123;28;20122;-68
2023/07/18 03:40:20;;;;;;;54.50;3.50;;;;;;;;;;5105709;28;20039;-68
2023/07/18 03:42:47;;;;;;;33.47;3.90;;;;;;;;;;5100048;28;20145;-68
2023/07/18 03:45:14;;;;;;;57.05;4.20;;;;;;;;;;5100841;28;20117;-69
2023/07/18 03:47:41;;;;;;;77.53;3.53;;;;;;;;;;5099975;28;20127;-68
2023/07/18 03:50:09;;;;;;;53.67;3.20;;;;;;;;;;5100581;28;20277;-68
2023/07/18 03:52:35;;;;;;;38.85;3.20;;;;;;;;;;5105568;28;20051;-68
2023/07/18 03:55:03;;;;;;;77.43;3.65;;;;;;;;;;5103908;28;20046;-68
2023/07/18 03:57:29;;;;;;;31.73;3.72;;;;;;;;;;5090441;28;20214;-68
2023/07/18 03:59:56;;;;;;;13.18;3.20;;;;;;;;;;5098952;28;20124;-68
2023/07/18 04:02:22;;;;;;;41.30;3.83;;;;;;;;;;5077567;28;20051;-68
2023/07/18 04:04:48;;;;;;;34.53;5.35;;;;;;;;;;5101915;28;20134;-69
2023/07/18 04:07:14;;;;;;;31.38;4.10;;;;;;;;;;5115280;28;20088;-68
2023/07/18 04:09:40;;;;;;;29.75;4.03;;;;;;;;;;5089289;28;20063;-68
2023/07/18 04:12:07;;;;;;;26.60;4.25;;;;;;;;;;5106479;28;20042;-68
2023/07/18 04:14:35;;;;;;;7.78;3.90;;;;;;;;;;5107604;28;20093;-68
2023/07/18 04:17:01;;;;;;;30.90;3.35;;;;;;;;;;5105838;28;20085;-68
2023/07/18 04:19:29;;;;;;;10.05;3.55;;;;;;;;;;5100843;28;20039;-68
2023/07/18 04:21:56;;;;;;;9.55;3.20;;;;;;;;;;5099298;28;20398;-68
2023/07/18 04:24:22;;;;;;;7.13;3.17;;;;;;;;;;5101375;28;20070;-68
2023/07/18 04:26:48;;;;;;;8.13;3.70;;;;;;;;;;5098203;28;20396;-68
2023/07/18 04:29:14;;;;;;;16.27;3.20;;;;;;;;;;5102650;28;20036;-68
2023/07/18 04:31:41;;;;;;;8.75;2.95;;;;;;;;;;5105483;28;20463;-69
2023/07/18 04:34:07;;;;;;;7.40;3.65;;;;;;;;;;5106412;27;20055;-69
2023/07/18 04:36:33;;;;;;;12.45;2.95;;;;;;;;;;5106366;27;20423;-68
2023/07/18 04:38:59;;;;;;;16.88;3.35;;;;;;;;;;5105360;28;20044;-69
2023/07/18 04:41:26;;;;;;;11.25;3.22;;;;;;;;;;5108147;28;20031;-68
2023/07/18 04:43:52;;;;;;;11.43;3.47;;;;;;;;;;5099454;28;20559;-68
2023/07/18 04:46:18;;;;;;;5.75;2.97;;;;;;;;;;5110831;27;20333;-68
2023/07/18 04:48:44;;;;;;;8.73;3.40;;;;;;;;;;5106376;27;20032;-67
2023/07/18 04:51:10;;;;;;;6.95;3.35;;;;;;;;;;5101682;27;20530;-68
2023/07/18 04:53:37;;;;;;;8.45;3.42;;;;;;;;;;5105146;27;20054;-68
2023/07/18 04:56:04;;;;;;;7.05;3.67;;;;;;;;;;5103374;28;20050;-69
2023/07/18 04:58:30;;;;;;;9.02;4.20;;;;;;;;;;5109974;27;20040;-68
2023/07/18 05:00:57;;;;;;;8.45;4.03;;;;;;;;;;5111214;27;20096;-68
2023/07/18 05:03:24;;;;;;;14.93;4.75;;;;;;;;;;5104019;28;20050;-69
2023/07/18 05:05:51;;;;;;;10.13;4.85;;;;;;;;;;5103893;28;20501;-65
2023/07/18 05:08:17;;;;;;;9.38;4.20;;;;;;;;;;5102773;28;20036;-64
2023/07/18 05:10:43;;;;;;;11.93;4.20;;;;;;;;;;5106224;27;20422;-68
2023/07/18 05:13:10;;;;;;;16.77;5.53;;;;;;;;;;5108523;27;20050;-68
2023/07/18 05:15:36;;;;;;;16.63;5.43;;;;;;;;;;5100366;27;20119;-68
2023/07/18 05:18:03;;;;;;;15.02;5.40;;;;;;;;;;5105775;28;20039;-68
2023/07/18 05:20:30;;;;;;;10.50;5.47;;;;;;;;;;5113285;28;20054;-68
2023/07/18 05:22:56;;;;;;;20.83;5.63;;;;;;;;;;5102853;28;20131;-68
2023/07/18 05:25:22;;;;;;;16.88;5.45;;;;;;;;;;5103311;28;20040;-68
2023/07/18 05:27:49;;;;;;;15.07;6.18;;;;;;;;;;5109062;28;20198;-68
2023/07/18 05:30:16;;;;;;;14.73;5.57;;;;;;;;;;5112703;28;20363;-68
2023/07/18 05:32:43;;;;;;;22.10;6.07;;;;;;;;;;5112810;27;20039;-68
2023/07/18 05:35:11;;;;;;;17.60;6.40;;;;;;;;;;5110371;27;20043;-69
2023/07/18 05:37:41;;;;;;;16.67;6.00;;;;;;;;;;5112955;27;20111;-69
2023/07/18 05:40:11;;;;;;;18.42;6.18;;;;;;;;;;5112125;28;20518;-68
2023/07/18 05:42:37;;;;;;;19.83;6.35;;;;;;;;;;5112485;28;20040;-69
2023/07/18 05:45:05;;;;;;;21.67;6.50;;;;;;;;;;5113351;27;20043;-68
2023/07/18 05:47:31;;;;;;;23.63;6.85;;;;;;;;;;5110751;27;20371;-68
2023/07/18 05:49:57;;;;;;;26.27;6.75;;;;;;;;;;5112805;28;20048;-68
2023/07/18 05:52:23;;;;;;;22.33;8.07;;;;;;;;;;5111321;28;20095;-66
2023/07/18 05:54:49;;;;;;;27.67;7.68;;;;;;;;;;5113416;28;20035;-66
2023/07/18 05:57:16;;;;;;;25.77;7.95;;;;;;;;;;5111032;27;20134;-66
2023/07/18 05:59:43;;;;;;;31.05;7.50;;;;;;;;;;5109049;28;20089;-68
2023/07/18 06:02:09;;;;;;;30.17;9.00;;;;;;;;;;5099443;28;20511;-67
2023/07/18 06:04:37;;;;;;;30.92;8.82;;;;;;;;;;5142118;27;20039;-67
2023/07/18 06:07:03;;;;;;;30.35;8.20;;;;;;;;;;5105174;28;20051;-67
2023/07/18 06:09:29;;;;;;;32.53;9.32;;;;;;;;;;5107796;28;20036;-67
2023/07/18 06:11:55;;;;;;;30.83;8.25;;;;;;;;;;5104274;28;20043;-67
2023/07/18 06:14:22;;;;;;;27.63;8.20;;;;;;;;;;5107816;28;20573;-68
2023/07/18 06:16:49;;;;;;;41.35;9.45;;;;;;;;;;5104431;27;20562;-67
2023/07/18 06:19:15;;;;;;;29.10;9.10;;;;;;;;;;5109539;28;20036;-67
2023/07/18 06:21:42;;;;;;;29.65;9.85;;;;;;;;;;5108996;28;20055;-67
2023/07/18 06:24:08;;;;;;;25.27;9.18;;;;;;;;;;5111979;28;20108;-67
2023/07/18 06:26:34;;;;;;;36.42;9.60;;;;;;;;;;5110857;27;20403;-67
2023/07/18 06:29:00;;;;;;;40.38;12.70;;;;;;;;;;5109203;27;20036;-67
2023/07/18 06:31:28;;;;;;;49.70;13.63;;;;;;;;;;5112903;28;20039;-67
2023/07/18 06:33:54;;;;;;;44.47;13.38;;;;;;;;;;5112094;27;20115;-67
2023/07/18 06:36:23;;;;;;;35.30;12.15;;;;;;;;;;5112517;28;20143;-66
2023/07/18 06:38:49;;;;;;;32.42;11.60;;;;;;;;;;5112415;28;20043;-67
2023/07/18 06:41:16;;;;;;;47.75;13.27;;;;;;;;;;5112190;28;20075;-68
2023/07/18 06:43:42;;;;;;;34.38;11.18;;;;;;;;;;5111308;27;20039;-67
2023/07/18 06:46:08;;;;;;;34.25;12.50;;;;;;;;;;5112685;27;20043;-67
2023/07/18 06:48:35;;;;;;;28.38;9.57;;;;;;;;;;5115878;27;20547;-67
2023/07/18 06:51:06;;;;;;;23.77;8.15;;;;;;;;;;5111707;27;20054;-67
2023/07/18 06:53:33;;;;;;;29.45;9.07;;;;;;;;;;5109624;28;20059;-68
2023/07/18 06:55:59;;;;;;;28.45;9.48;;;;;;;;;;5105784;27;20048;-67
2023/07/18 06:58:26;;;;;;;26.35;9.32;;;;;;;;;;5109654;28;20039;-67
2023/07/18 07:00:52;;;;;;;28.38;9.32;;;;;;;;;;5112091;28;20061;-82
2023/07/18 07:03:19;;;;;;;27.92;8.48;;;;;;;;;;5109724;28;20042;-67
2023/07/18 07:05:45;;;;;;;14.20;5.55;;;;;;;;;;5111100;28;20048;-67
2023/07/18 07:08:12;;;;;;;15.60;3.42;;;;;;;;;;5110351;28;20104;-68
2023/07/18 07:10:39;;;;;;;18.33;4.05;;;;;;;;;;5119204;27;20031;-69
2023/07/18 07:13:05;;;;;;;12.52;2.85;;;;;;;;;;5106340;28;20121;-69
2023/07/18 07:15:35;;;;;;;14.50;3.40;;;;;;;;;;5110700;28;20040;-69
2023/07/18 07:18:02;;;;;;;10.02;2.78;;;;;;;;;;5111589;28;20149;-69
2023/07/18 07:20:28;;;;;;;10.82;2.95;;;;;;;;;;5110893;28;20369;-69
2023/07/18 07:22:55;;;;;;;16.90;3.95;;;;;;;;;;5110743;28;20047;-69
2023/07/18 07:25:22;;;;;;;14.93;4.35;;;;;;;;;;5105112;28;20055;-69
2023/07/18 07:27:48;;;;;;;13.48;3.83;;;;;;;;;;5101122;28;20036;-69
2023/07/18 07:30:15;;;;;;;13.77;2.78;;;;;;;;;;5108851;28;20188;-69
2023/07/18 07:32:43;;;;;;;12.40;2.88;;;;;;;;;;5103770;28;20055;-69
2023/07/18 07:35:09;;;;;;;12.20;3.17;;;;;;;;;;5110341;28;20093;-69
2023/07/18 07:37:36;;;;;;;13.05;2.53;;;;;;;;;;5111730;28;20054;-67
2023/07/18 07:40:06;;;;;;;18.90;3.42;;;;;;;;;;5109182;28;20126;-68
2023/07/18 07:42:33;;;;;;;16.77;4.03;;;;;;;;;;5111835;28;20036;-68
2023/07/18 07:44:59;;;;;;;11.88;3.13;;;;;;;;;;5111625;28;20080;-68
2023/07/18 07:47:25;;;;;;;12.85;2.97;;;;;;;;;;5108123;28;20225;-68
2023/07/18 07:49:51;;;;;;;13.45;2.90;;;;;;;;;;5108353;28;20052;-68
2023/07/18 07:52:17;;;;;;;12.82;2.83;;;;;;;;;;5138787;27;20036;-68
2023/07/18 07:54:44;;;;;;;18.45;4.47;;;;;;;;;;5110938;28;20383;-67
2023/07/18 07:57:10;;;;;;;14.20;3.25;;;;;;;;;;5111666;28;20110;-68
2023/07/18 07:59:37;;;;;;;18.98;3.20;;;;;;;;;;5109569;28;20478;-67
2023/07/18 08:02:03;;;;;;;16.75;3.40;;;;;;;;;;5109437;28;20050;-68
2023/07/18 08:04:30;;;;;;;20.17;4.05;;;;;;;;;;5113033;28;20123;-68
2023/07/18 08:06:59;;;;;;;15.40;3.65;;;;;;;;;;5115137;28;20039;-67
2023/07/18 08:09:25;;;;;;;11.75;3.00;;;;;;;;;;5112045;28;20055;-67
2023/07/18 08:11:51;;;;;;;10.48;3.05;;;;;;;;;;5112825;27;20056;-68
2023/07/18 08:14:17;;;;;;;16.60;3.40;;;;;;;;;;5110895;28;20039;-67
2023/07/18 08:16:44;;;;;;;12.00;2.63;;;;;;;;;;5114205;28;20055;-67
2023/07/18 08:19:11;;;;;;;11.07;2.97;;;;;;;;;;5113933;28;20153;-68
2023/07/18 08:21:37;;;;;;;15.50;3.97;;;;;;;;;;5113953;28;20044;-68
2023/07/18 08:24:04;;;;;;;17.60;3.55;;;;;;;;;;5111451;28;20047;-68
2023/07/18 08:26:30;;;;;;;17.42;3.20;;;;;;;;;;5112727;27;20054;-68
2023/07/18 08:28:56;;;;;;;9.98;3.25;;;;;;;;;;5114171;27;20479;-81
2023/07/18 08:31:22;;;;;;;17.10;4.25;;;;;;;;;;5111910;27;20059;-68
2023/07/18 08:33:48;;;;;;;16.45;3.97;;;;;;;;;;5114006;27;20387;-68
2023/07/18 08:36:15;;;;;;;8.18;2.92;;;;;;;;;;5114951;27;20115;-67
2023/07/18 08:38:49;;;;;;;14.77;3.72;;;;;;;;;;5114953;27;20048;-67
2023/07/18 08:41:15;;;;;;;18.60;4.13;;;;;;;;;;5114601;28;20079;-67
2023/07/18 08:43:41;;;;;;;15.57;3.65;;;;;;;;;;5115034;27;20047;-67
2023/07/18 08:46:08;;;;;;;12.57;2.72;;;;;;;;;;5114416;28;20050;-67
2023/07/18 08:48:34;;;;;;;12.30;3.10;;;;;;;;;;5114057;27;20128;-67
2023/07/18 08:51:00;;;;;;;12.00;3.00;;;;;;;;;;5114710;28;20055;-67
2023/07/18 08:53:27;;;;;;;15.48;3.47;;;;;;;;;;5113000;28;20126;-67
2023/07/18 08:55:53;;;;;;;13.82;3.33;;;;;;;;;;5096105;28;20165;-67
2023/07/18 08:58:23;;;;;;;8.77;2.60;;;;;;;;;;5114776;27;20063;-67
2023/07/18 09:00:49;;;;;;;11.02;3.35;;;;;;;;;;5120961;27;20087;-68
2023/07/18 09:03:17;;;;;;;11.80;2.35;;;;;;;;;;5112827;27;20115;-68
2023/07/18 09:05:43;;;;;;;14.52;3.03;;;;;;;;;;5111723;27;20112;-67
2023/07/18 09:08:09;;;;;;;9.55;2.47;;;;;;;;;;5114009;28;20050;-66
2023/07/18 09:10:35;;;;;;;10.65;2.17;;;;;;;;;;5112910;27;20040;-66
2023/07/18 09:13:03;;;;;;;11.10;2.42;;;;;;;;;;5114501;28;20517;-66
2023/07/18 09:15:29;;;;;;;15.60;2.80;;;;;;;;;;5112052;28;20059;-66
2023/07/18 09:17:57;;;;;;;11.90;2.33;;;;;;;;;;5112169;28;20088;-66
2023/07/18 09:20:24;;;;;;;10.98;2.22;;;;;;;;;;5111048;27;20080;-66
2023/07/18 09:22:53;;;;;;;9.57;2.42;;;;;;;;;;5113128;28;20122;-66
2023/07/18 09:25:20;;;;;;;9.48;2.47;;;;;;;;;;5113567;28;20129;-66
2023/07/18 09:27:49;;;;;;;12.88;2.83;;;;;;;;;;5113574;27;20051;-66
2023/07/18 09:30:20;;;;;;;9.35;2.75;;;;;;;;;;5108556;27;20069;-66
2023/07/18 09:32:49;;;;;;;10.75;2.80;;;;;;;;;;5112185;28;20046;-66
2023/07/18 09:35:16;;;;;;;9.95;2.45;;;;;;;;;;5112008;28;20047;-66
2023/07/18 09:37:46;;;;;;;10.90;2.63;;;;;;;;;;5112157;28;20507;-65
2023/07/18 09:40:17;;;;;;;11.50;2.55;;;;;;;;;;5112706;27;20063;-66
2023/07/18 09:42:47;;;;;;;11.80;3.08;;;;;;;;;;5113448;28;20402;-66
2023/07/18 09:45:14;;;;;;;11.02;2.80;;;;;;;;;;5111181;28;20048;-67
2023/07/18 09:47:41;;;;;;;11.13;3.47;;;;;;;;;;5112352;27;20047;-66
2023/07/18 09:50:14;;;;;;;9.60;2.90;;;;;;;;;;5112108;28;20044;-67
2023/07/18 09:52:41;;;;;;;;;;;;;;;;;;5112657;28;20051;-68
2023/07/18 09:55:09;;;;;;;12.18;2.30;;;;;;;;;;5112440;27;19920;-69
2023/07/18 09:57:40;;;;;;;17.55;3.67;;;;;;;;;;5111888;27;20138;-68
2023/07/18 10:00:11;;;;;;;8.63;2.70;;;;;;;;;;5108391;28;20071;-69
2023/07/18 10:02:38;;;;;;;10.50;2.78;;;;;;;;;;5111847;28;20483;-68
2023/07/18 10:05:09;;;;;;;14.07;2.80;;;;;;;;;;5113418;28;20040;-69
2023/07/18 10:07:36;;;;;;;10.80;2.42;;;;;;;;;;5109545;27;20112;-68
2023/07/18 10:10:02;;;;;;;8.20;2.75;;;;;;;;;;5107744;27;20141;-69
2023/07/18 10:12:28;;;;;;;9.70;2.33;;;;;;;;;;5112522;28;20039;-68
2023/07/18 10:15:00;;;;;;;11.05;2.30;;;;;;;;;;5112381;28;20130;-68
2023/07/18 10:17:33;;;;;;;9.40;2.38;;;;;;;;;;5112992;28;20040;-69
2023/07/18 10:20:01;;;;;;;7.13;2.10;;;;;;;;;;5119348;27;20503;-69
2023/07/18 10:22:31;;;;;;;11.80;2.92;;;;;;;;;;5111713;28;20067;-69
2023/07/18 10:25:04;;;;;;;8.68;2.28;;;;;;;;;;5112637;28;20040;-69
2023/07/18 10:27:30;;;;;;;;;;;;;;;;;;5110860;28;20106;-69
2023/07/18 10:30:07;;;;;;;8.10;2.60;;;;;;;;;;5112513;27;19920;-69
2023/07/18 10:32:35;;;;;;;13.80;2.92;;;;;;;;;;5112780;28;20051;-69
2023/07/18 10:35:05;;;;;;;9.52;2.78;;;;;;;;;;5111335;28;20153;-69
2023/07/18 10:37:32;;;;;;;6.00;1.98;;;;;;;;;;5111177;27;20100;-69
2023/07/18 10:40:01;;;;;;;10.48;2.95;;;;;;;;;;5112895;28;20388;-66
2023/07/18 10:42:30;;;;;;;7.70;2.92;;;;;;;;;;5112473;28;20364;-66
2023/07/18 10:44:57;;;;;;;9.45;2.38;;;;;;;;;;5112438;28;20091;-66
2023/07/18 10:47:23;;;;;;;13.40;3.42;;;;;;;;;;5111225;28;20047;-66
2023/07/18 10:49:50;;;;;;;12.77;3.50;;;;;;;;;;5111934;28;20152;-66
2023/07/18 10:52:16;;;;;;;10.00;3.47;;;;;;;;;;5111625;28;20051;-66
2023/07/18 10:54:56;;;;;;;10.38;3.83;;;;;;;;;;5110052;28;20111;-66
2023/07/18 10:57:29;;;;;;;12.38;2.40;;;;;;;;;;5110756;28;20044;-66
2023/07/18 10:59:58;;;;;;;9.25;2.38;;;;;;;;;;5109795;28;22552;-66
2023/07/18 11:02:25;;;;;;;10.55;2.85;;;;;;;;;;5109139;28;20105;-66
2023/07/18 11:04:52;;;;;;;12.23;3.53;;;;;;;;;;5109950;28;20051;-66
2023/07/18 11:07:18;;;;;;;10.27;3.38;;;;;;;;;;5111378;28;20447;-66
2023/07/18 11:09:44;;;;;;;7.43;2.47;;;;;;;;;;5110926;28;20043;-66
2023/07/18 11:12:18;;;;;;;10.30;2.95;;;;;;;;;;5109741;28;20120;-66
2023/07/18 11:14:44;;;;;;;12.30;3.15;;;;;;;;;;5111829;28;20040;-66
2023/07/18 11:17:17;;;;;;;10.85;2.72;;;;;;;;;;5109647;28;20126;-66
2023/07/18 11:19:43;;;;;;;8.37;2.90;;;;;;;;;;5109932;28;20467;-66
2023/07/18 11:22:10;;;;;;;7.97;2.88;;;;;;;;;;5109736;28;20294;-66
2023/07/18 11:24:37;;;;;;;8.77;2.88;;;;;;;;;;5095282;28;20043;-66
2023/07/18 11:27:19;;;;;;;10.20;3.55;;;;;;;;;;5109730;28;20096;-66
2023/07/18 11:30:04;;;;;;;10.20;3.15;;;;;;;;;;5110433;28;20079;-66
2023/07/18 11:32:40;;;;;;;9.70;2.30;;;;;;;;;;5108290;28;20054;-66
2023/07/18 11:35:18;;;;;;;11.20;2.97;;;;;;;;;;5111158;28;20123;-66
2023/07/18 11:37:46;;;;;;;5.70;1.77;;;;;;;;;;5109455;28;20079;-66
2023/07/18 11:40:19;;;;;;;8.98;2.95;;;;;;;;;;5111788;28;20136;-66
2023/07/18 11:42:46;;;;;;;8.98;1.90;;;;;;;;;;5117570;28;20115;-66
2023/07/18 11:45:13;;;;;;;7.38;2.03;;;;;;;;;;5113774;28;20039;-67
2023/07/18 11:47:43;;;;;;;4.13;1.40;;;;;;;;;;5106659;28;20059;-67
2023/07/18 11:50:10;;;;;;;4.70;1.33;;;;;;;;;;5060800;28;1257330;-67
2023/07/18 11:52:36;;;;;;;4.65;1.33;;;;;;;;;;5105918;28;20109;-67
2023/07/18 11:55:03;;;;;;;4.70;1.48;;;;;;;;;;5112467;28;20035;-67
2023/07/18 11:57:29;;;;;;;4.68;1.23;;;;;;;;;;5114110;28;20151;-67
2023/07/18 11:59:55;;;;;;;6.15;1.30;;;;;;;;;;5113623;28;20051;-66
2023/07/18 12:02:21;;;;;;;4.93;1.33;;;;;;;;;;5103572;28;20051;-66
2023/07/18 12:04:48;;;;;;;6.68;1.40;;;;;;;;;;5114644;28;20043;-66
2023/07/18 12:07:14;;;;;;;6.45;1.63;;;;;;;;;;5113388;28;20096;-65
2023/07/18 12:09:40;;;;;;;6.18;1.58;;;;;;;;;;5108495;28;20047;-65
2023/07/18 12:12:07;;;;;;;7.40;1.30;;;;;;;;;;5113189;27;20543;-64
2023/07/18 12:14:34;;;;;;;6.63;1.67;;;;;;;;;;5115877;28;20375;-65
2023/07/18 12:17:00;;;;;;;7.00;1.67;;;;;;;;;;5113304;28;20043;-65
2023/07/18 12:19:26;;;;;;;4.95;1.33;;;;;;;;;;5113544;28;20497;-65
2023/07/18 12:21:53;;;;;;;6.18;1.30;;;;;;;;;;5111929;27;20159;-66
2023/07/18 12:24:19;;;;;;;9.20;1.55;;;;;;;;;;5113541;27;20751;-66
2023/07/18 12:26:45;;;;;;;5.03;1.30;;;;;;;;;;5103352;27;20043;-67
2023/07/18 12:29:16;;;;;;;3.70;1.10;;;;;;;;;;5126053;27;20122;-67
2023/07/18 12:31:51;;;;;;;5.80;1.65;;;;;;;;;;5114448;27;20046;-66
2023/07/18 12:34:21;;;;;;;7.65;1.50;;;;;;;;;;5112951;27;20051;-67
2023/07/18 12:36:47;;;;;;;4.00;1.15;;;;;;;;;;5112112;27;20103;-67
2023/07/18 12:39:14;;;;;;;4.88;1.55;;;;;;;;;;5110994;27;20158;-66
2023/07/18 12:41:41;;;;;;;5.63;1.20;;;;;;;;;;5110663;28;20044;-66
2023/07/18 12:44:07;;;;;;;5.97;1.38;;;;;;;;;;5104731;28;20059;-66
2023/07/18 12:46:34;;;;;;;4.40;1.27;;;;;;;;;;5110979;28;20051;-66
2023/07/18 12:49:01;;;;;;;8.13;1.73;;;;;;;;;;5108266;27;20070;-66
2023/07/18 12:51:28;;;;;;;7.32;1.77;;;;;;;;;;5112256;28;20051;-67
2023/07/18 12:53:54;;;;;;;4.10;1.30;;;;;;;;;;5113322;28;20044;-66
2023/07/18 12:56:21;;;;;;;6.60;1.50;;;;;;;;;;5111234;28;20052;-66
2023/07/18 12:58:47;;;;;;;6.05;1.17;;;;;;;;;;5092637;28;20482;-66
2023/07/18 13:01:14;;;;;;;3.97;1.20;;;;;;;;;;5111130;28;20154;-65
2023/07/18 13:03:40;;;;;;;6.95;1.83;;;;;;;;;;5113269;28;20130;-65
2023/07/18 13:06:08;;;;;;;3.58;1.23;;;;;;;;;;5114295;28;20364;-65
2023/07/18 13:08:34;;;;;;;5.72;1.35;;;;;;;;;;5113897;28;20436;-65
2023/07/18 13:11:00;;;;;;;5.93;1.20;;;;;;;;;;5113752;28;20035;-65
2023/07/18 13:13:27;;;;;;;4.68;1.45;;;;;;;;;;5109063;27;20039;-65
2023/07/18 13:15:53;;;;;;;7.18;1.40;;;;;;;;;;5111963;28;20044;-65
2023/07/18 13:18:19;;;;;;;5.70;1.60;;;;;;;;;;5113263;28;20063;-65
2023/07/18 13:20:45;;;;;;;6.60;1.83;;;;;;;;;;5114061;28;20109;-65
2023/07/18 13:23:11;;;;;;;5.22;1.33;;;;;;;;;;5109646;27;20075;-67
2023/07/18 13:25:38;;;;;;;5.20;1.00;;;;;;;;;;5101949;28;20048;-67
2023/07/18 13:28:04;;;;;;;5.82;1.60;;;;;;;;;;5114467;28;20031;-67
2023/07/18 13:30:31;;;;;;;5.78;1.40;;;;;;;;;;5113817;28;20463;-67
2023/07/18 13:32:57;;;;;;;4.55;1.50;;;;;;;;;;5110436;28;20461;-67
2023/07/18 13:35:23;;;;;;;7.75;1.50;;;;;;;;;;5113161;28;20043;-68
2023/07/18 13:37:49;;;;;;;5.93;1.27;;;;;;;;;;5111864;28;20134;-68
2023/07/18 13:40:15;;;;;;;6.50;1.55;;;;;;;;;;5112494;28;20060;-68
2023/07/18 13:42:42;;;;;;;5.70;2.03;;;;;;;;;;5103082;27;20039;-68
2023/07/18 13:45:08;;;;;;;5.93;1.45;;;;;;;;;;5108745;27;20054;-68
2023/07/18 13:47:35;;;;;;;5.70;1.33;;;;;;;;;;5109876;28;20493;-68
2023/07/18 13:50:01;;;;;;;5.72;1.98;;;;;;;;;;5108033;28;20142;-68
2023/07/18 13:52:28;;;;;;;7.68;1.75;;;;;;;;;;5107970;27;20064;-68
2023/07/18 13:54:55;;;;;;;4.30;1.38;;;;;;;;;;5106728;27;20044;-67
2023/07/18 13:57:22;;;;;;;6.63;1.42;;;;;;;;;;5108050;28;20050;-68
2023/07/18 13:59:48;;;;;;;6.15;1.42;;;;;;;;;;5111495;28;20035;-68
2023/07/18 14:02:14;;;;;;;6.22;1.55;;;;;;;;;;5109577;28;20044;-67
2023/07/18 14:04:41;;;;;;;6.07;2.05;;;;;;;;;;5110039;28;20577;-67
2023/07/18 14:07:07;;;;;;;5.50;1.45;;;;;;;;;;5112602;28;20475;-67
2023/07/18 14:09:33;;;;;;;6.13;1.42;;;;;;;;;;5115883;27;20122;-71
2023/07/18 14:12:00;;;;;;;9.13;2.45;;;;;;;;;;5106907;27;20537;-67
2023/07/18 14:14:26;;;;;;;5.32;1.25;;;;;;;;;;5104999;27;20046;-67
2023/07/18 14:16:52;;;;;;;7.63;1.60;;;;;;;;;;5094638;28;20047;-67
2023/07/18 14:19:18;;;;;;;9.32;1.67;;;;;;;;;;5110979;28;20112;-67
2023/07/18 14:21:45;;;;;;;8.90;2.28;;;;;;;;;;5105991;28;20375;-67
2023/07/18 14:24:11;;;;;;;9.70;1.77;;;;;;;;;;5142376;27;20044;-67
2023/07/18 14:26:38;;;;;;;11.60;1.70;;;;;;;;;;5112944;28;20046;-67
2023/07/18 14:29:04;;;;;;;5.13;1.48;;;;;;;;;;5092300;27;20364;-67
2023/07/18 14:31:32;;;;;;;7.85;1.83;;;;;;;;;;5109466;27;20054;-67
2023/07/18 14:33:58;;;;;;;9.75;1.92;;;;;;;;;;5107424;27;20039;-67
2023/07/18 14:36:25;;;;;;;7.75;1.50;;;;;;;;;;5108217;28;20444;-65